sensor_id;sensor_type;location;lat;lon;timestamp;P1;durP1;ratioP1;P2;durP2;ratioP2
9661;SDS011;24982;52.344;12.990;2023-03-31T00:02:45;5.93;;;1.90;;
9661;SDS011;24982;52.344;12.990;2023-03-31T00:05:47;4.70;;;1.88;;
9661;SDS011;24982;52.344;12.990;2023-03-31T00:08:52;5.05;;;1.80;;
9661;SDS011;24982;52.344;12.990;2023-03-31T00:11:54;5.72;;;2.13;;
9661;SDS011;24982;52.344;12.990;2023-03-31T00:14:56;5.28;;;1.90;;
9661;SDS011;24982;52.344;12.990;2023-03-31T00:18:00;5.10;;;1.90;;
9661;SDS011;24982;52.344;12.990;2023-03-31T00:21:05;5.95;;;1.70;;
9661;SDS011;24982;52.344;12.990;2023-03-31T00:24:09;2.92;;;1.85;;
9661;SDS011;24982;52.344;12.990;2023-03-31T00:27:12;6.63;;;2.03;;
9661;SDS011;24982;52.344;12.990;2023-03-31T00:30:15;3.38;;;1.75;;
9661;SDS011;24982;52.344;12.990;2023-03-31T00:33:18;6.68;;;1.67;;
9661;SDS011;24982;52.344;12.990;2023-03-31T00:36:20;6.03;;;2.10;;
9661;SDS011;24982;52.344;12.990;2023-03-31T00:39:26;3.83;;;1.55;;
9661;SDS011;24982;52.344;12.990;2023-03-31T00:42:31;2.80;;;1.42;;
9661;SDS011;24982;52.344;12.990;2023-03-31T00:45:33;3.22;;;1.45;;
9661;SDS011;24982;52.344;12.990;2023-03-31T00:48:37;6.20;;;1.75;;
9661;SDS011;24982;52.344;12.990;2023-03-31T00:51:40;6.90;;;1.90;;
9661;SDS011;24982;52.344;12.990;2023-03-31T00:54:44;2.28;;;1.60;;
9661;SDS011;24982;52.344;12.990;2023-03-31T00:57:48;5.00;;;1.70;;
9661;SDS011;24982;52.344;12.990;2023-03-31T01:00:53;4.32;;;1.58;;
9661;SDS011;24982;52.344;12.990;2023-03-31T01:03:59;3.70;;;1.50;;
9661;SDS011;24982;52.344;12.990;2023-03-31T01:07:02;3.97;;;1.42;;
9661;SDS011;24982;52.344;12.990;2023-03-31T01:10:09;6.82;;;1.88;;
9661;SDS011;24982;52.344;12.990;2023-03-31T01:13:12;3.80;;;1.70;;
9661;SDS011;24982;52.344;12.990;2023-03-31T01:16:15;8.27;;;1.80;;
9661;SDS011;24982;52.344;12.990;2023-03-31T01:19:19;4.57;;;1.70;;
9661;SDS011;24982;52.344;12.990;2023-03-31T01:26:38;3.30;;;1.50;;
9661;SDS011;24982;52.344;12.990;2023-03-31T01:29:58;2.00;;;1.30;;
9661;SDS011;24982;52.344;12.990;2023-03-31T01:33:32;5.80;;;1.52;;
9661;SDS011;24982;52.344;12.990;2023-03-31T01:40:37;3.88;;;1.52;;
9661;SDS011;24982;52.344;12.990;2023-03-31T01:44:00;3.30;;;1.60;;
9661;SDS011;24982;52.344;12.990;2023-03-31T01:47:12;5.68;;;1.55;;
9661;SDS011;24982;52.344;12.990;2023-03-31T01:50:18;5.35;;;1.52;;
9661;SDS011;24982;52.344;12.990;2023-03-31T01:53:27;5.15;;;2.10;;
9661;SDS011;24982;52.344;12.990;2023-03-31T01:56:35;6.10;;;1.38;;
9661;SDS011;24982;52.344;12.990;2023-03-31T01:59:42;6.35;;;1.50;;
9661;SDS011;24982;52.344;12.990;2023-03-31T02:02:48;4.57;;;1.50;;
9661;SDS011;24982;52.344;12.990;2023-03-31T02:05:53;6.10;;;1.50;;
9661;SDS011;24982;52.344;12.990;2023-03-31T02:08:59;2.83;;;1.33;;
9661;SDS011;24982;52.344;12.990;2023-03-31T02:12:06;5.07;;;1.15;;
9661;SDS011;24982;52.344;12.990;2023-03-31T02:15:12;3.15;;;1.40;;
9661;SDS011;24982;52.344;12.990;2023-03-31T02:18:19;2.65;;;1.35;;
9661;SDS011;24982;52.344;12.990;2023-03-31T02:21:26;2.42;;;1.20;;
9661;SDS011;24982;52.344;12.990;2023-03-31T02:24:29;1.25;;;1.10;;
9661;SDS011;24982;52.344;12.990;2023-03-31T02:27:36;2.58;;;1.30;;
9661;SDS011;24982;52.344;12.990;2023-03-31T02:30:42;1.80;;;1.38;;
9661;SDS011;24982;52.344;12.990;2023-03-31T02:33:51;6.82;;;1.45;;
9661;SDS011;24982;52.344;12.990;2023-03-31T02:36:53;2.72;;;1.40;;
9661;SDS011;24982;52.344;12.990;2023-03-31T02:39:56;6.10;;;1.38;;
9661;SDS011;24982;52.344;12.990;2023-03-31T02:43:03;1.52;;;1.30;;
9661;SDS011;24982;52.344;12.990;2023-03-31T02:46:05;6.95;;;1.50;;
9661;SDS011;24982;52.344;12.990;2023-03-31T02:49:07;3.60;;;1.50;;
9661;SDS011;24982;52.344;12.990;2023-03-31T02:55:46;3.13;;;1.45;;
9661;SDS011;24982;52.344;12.990;2023-03-31T02:59:04;4.25;;;1.60;;
9661;SDS011;24982;52.344;12.990;2023-03-31T03:02:17;2.75;;;1.55;;
9661;SDS011;24982;52.344;12.990;2023-03-31T03:05:34;4.75;;;1.67;;
9661;SDS011;24982;52.344;12.990;2023-03-31T03:09:06;2.38;;;1.48;;
9661;SDS011;24982;52.344;12.990;2023-03-31T03:12:15;5.10;;;1.88;;
9661;SDS011;24982;52.344;12.990;2023-03-31T03:15:26;4.93;;;1.60;;
9661;SDS011;24982;52.344;12.990;2023-03-31T03:18:31;5.13;;;1.70;;
9661;SDS011;24982;52.344;12.990;2023-03-31T03:21:33;4.35;;;1.70;;
9661;SDS011;24982;52.344;12.990;2023-03-31T03:24:35;5.47;;;1.90;;
9661;SDS011;24982;52.344;12.990;2023-03-31T03:27:39;3.50;;;1.40;;
9661;SDS011;24982;52.344;12.990;2023-03-31T03:30:42;5.00;;;1.40;;
9661;SDS011;24982;52.344;12.990;2023-03-31T03:33:45;2.92;;;1.35;;
9661;SDS011;24982;52.344;12.990;2023-03-31T03:36:47;5.45;;;1.98;;
9661;SDS011;24982;52.344;12.990;2023-03-31T03:39:49;3.10;;;1.77;;
9661;SDS011;24982;52.344;12.990;2023-03-31T03:42:50;5.55;;;1.90;;
9661;SDS011;24982;52.344;12.990;2023-03-31T03:45:54;3.85;;;1.88;;
9661;SDS011;24982;52.344;12.990;2023-03-31T03:48:56;2.42;;;1.65;;
9661;SDS011;24982;52.344;12.990;2023-03-31T03:51:58;6.68;;;1.70;;
9661;SDS011;24982;52.344;12.990;2023-03-31T03:55:00;5.03;;;1.70;;
9661;SDS011;24982;52.344;12.990;2023-03-31T03:58:02;4.45;;;1.73;;
9661;SDS011;24982;52.344;12.990;2023-03-31T04:01:06;2.90;;;1.60;;
9661;SDS011;24982;52.344;12.990;2023-03-31T04:04:08;6.15;;;1.88;;
9661;SDS011;24982;52.344;12.990;2023-03-31T04:07:10;3.85;;;1.52;;
9661;SDS011;24982;52.344;12.990;2023-03-31T04:10:12;2.38;;;1.50;;
9661;SDS011;24982;52.344;12.990;2023-03-31T04:13:14;4.38;;;1.70;;
9661;SDS011;24982;52.344;12.990;2023-03-31T04:16:17;6.90;;;1.67;;
9661;SDS011;24982;52.344;12.990;2023-03-31T04:19:19;2.65;;;1.60;;
9661;SDS011;24982;52.344;12.990;2023-03-31T04:22:24;6.15;;;1.80;;
9661;SDS011;24982;52.344;12.990;2023-03-31T04:25:28;3.75;;;1.50;;
9661;SDS011;24982;52.344;12.990;2023-03-31T04:28:30;6.00;;;1.73;;
9661;SDS011;24982;52.344;12.990;2023-03-31T04:31:35;4.88;;;1.80;;
9661;SDS011;24982;52.344;12.990;2023-03-31T04:34:41;4.32;;;1.60;;
9661;SDS011;24982;52.344;12.990;2023-03-31T04:37:46;3.85;;;1.70;;
9661;SDS011;24982;52.344;12.990;2023-03-31T04:40:49;4.05;;;1.80;;
9661;SDS011;24982;52.344;12.990;2023-03-31T04:43:52;3.92;;;2.67;;
9661;SDS011;24982;52.344;12.990;2023-03-31T04:46:55;6.47;;;2.40;;
9661;SDS011;24982;52.344;12.990;2023-03-31T04:49:58;5.57;;;3.10;;
9661;SDS011;24982;52.344;12.990;2023-03-31T04:52:59;9.25;;;3.45;;
9661;SDS011;24982;52.344;12.990;2023-03-31T04:56:02;5.72;;;2.58;;
9661;SDS011;24982;52.344;12.990;2023-03-31T04:59:04;3.65;;;1.45;;
9661;SDS011;24982;52.344;12.990;2023-03-31T05:02:09;4.43;;;1.95;;
9661;SDS011;24982;52.344;12.990;2023-03-31T05:05:10;5.47;;;1.85;;
9661;SDS011;24982;52.344;12.990;2023-03-31T05:08:13;5.10;;;1.70;;
9661;SDS011;24982;52.344;12.990;2023-03-31T05:11:15;3.33;;;1.95;;
9661;SDS011;24982;52.344;12.990;2023-03-31T05:14:17;3.78;;;1.80;;
9661;SDS011;24982;52.344;12.990;2023-03-31T05:17:21;3.15;;;1.63;;
9661;SDS011;24982;52.344;12.990;2023-03-31T05:20:23;5.40;;;1.60;;
9661;SDS011;24982;52.344;12.990;2023-03-31T05:23:25;6.60;;;1.92;;
9661;SDS011;24982;52.344;12.990;2023-03-31T05:26:27;7.57;;;2.00;;
9661;SDS011;24982;52.344;12.990;2023-03-31T05:29:29;4.28;;;1.60;;
9661;SDS011;24982;52.344;12.990;2023-03-31T05:32:32;8.15;;;2.28;;
9661;SDS011;24982;52.344;12.990;2023-03-31T05:35:34;5.07;;;1.98;;
9661;SDS011;24982;52.344;12.990;2023-03-31T05:38:36;6.80;;;1.80;;
9661;SDS011;24982;52.344;12.990;2023-03-31T05:41:38;3.38;;;1.48;;
9661;SDS011;24982;52.344;12.990;2023-03-31T05:44:40;5.65;;;1.90;;
9661;SDS011;24982;52.344;12.990;2023-03-31T05:47:47;5.90;;;1.70;;
9661;SDS011;24982;52.344;12.990;2023-03-31T05:50:49;5.78;;;1.90;;
9661;SDS011;24982;52.344;12.990;2023-03-31T05:53:51;7.15;;;1.80;;
9661;SDS011;24982;52.344;12.990;2023-03-31T05:56:53;6.75;;;1.75;;
9661;SDS011;24982;52.344;12.990;2023-03-31T05:59:55;5.60;;;1.75;;
9661;SDS011;24982;52.344;12.990;2023-03-31T06:02:59;6.45;;;1.90;;
9661;SDS011;24982;52.344;12.990;2023-03-31T06:06:02;8.23;;;1.90;;
9661;SDS011;24982;52.344;12.990;2023-03-31T06:09:04;5.60;;;1.73;;
9661;SDS011;24982;52.344;12.990;2023-03-31T06:12:07;7.57;;;2.13;;
9661;SDS011;24982;52.344;12.990;2023-03-31T06:15:09;6.78;;;1.80;;
9661;SDS011;24982;52.344;12.990;2023-03-31T06:18:12;6.18;;;1.73;;
9661;SDS011;24982;52.344;12.990;2023-03-31T06:21:15;4.22;;;1.60;;
9661;SDS011;24982;52.344;12.990;2023-03-31T06:24:18;5.68;;;1.90;;
9661;SDS011;24982;52.344;12.990;2023-03-31T06:27:20;7.97;;;1.90;;
9661;SDS011;24982;52.344;12.990;2023-03-31T06:30:22;4.68;;;1.98;;
9661;SDS011;24982;52.344;12.990;2023-03-31T06:33:26;10.32;;;2.08;;
9661;SDS011;24982;52.344;12.990;2023-03-31T06:36:28;5.45;;;1.90;;
9661;SDS011;24982;52.344;12.990;2023-03-31T06:39:30;5.13;;;2.25;;
9661;SDS011;24982;52.344;12.990;2023-03-31T06:42:32;6.28;;;1.85;;
9661;SDS011;24982;52.344;12.990;2023-03-31T06:45:35;4.55;;;1.85;;
9661;SDS011;24982;52.344;12.990;2023-03-31T06:48:39;4.25;;;1.75;;
9661;SDS011;24982;52.344;12.990;2023-03-31T06:51:41;4.78;;;1.60;;
9661;SDS011;24982;52.344;12.990;2023-03-31T06:54:43;4.57;;;1.70;;
9661;SDS011;24982;52.344;12.990;2023-03-31T06:57:45;6.53;;;2.03;;
9661;SDS011;24982;52.344;12.990;2023-03-31T07:00:47;2.80;;;1.45;;
9661;SDS011;24982;52.344;12.990;2023-03-31T07:03:51;2.53;;;1.30;;
9661;SDS011;24982;52.344;12.990;2023-03-31T07:06:53;8.02;;;1.70;;
9661;SDS011;24982;52.344;12.990;2023-03-31T07:09:56;5.55;;;2.10;;
9661;SDS011;24982;52.344;12.990;2023-03-31T07:12:58;8.15;;;2.03;;
9661;SDS011;24982;52.344;12.990;2023-03-31T07:16:00;6.75;;;2.13;;
9661;SDS011;24982;52.344;12.990;2023-03-31T07:19:06;6.18;;;1.75;;
9661;SDS011;24982;52.344;12.990;2023-03-31T07:22:10;7.15;;;2.00;;
9661;SDS011;24982;52.344;12.990;2023-03-31T07:25:13;4.82;;;1.95;;
9661;SDS011;24982;52.344;12.990;2023-03-31T07:28:17;5.63;;;1.80;;
9661;SDS011;24982;52.344;12.990;2023-03-31T07:31:19;6.05;;;1.77;;
9661;SDS011;24982;52.344;12.990;2023-03-31T07:34:22;8.32;;;2.05;;
9661;SDS011;24982;52.344;12.990;2023-03-31T07:37:24;4.68;;;1.83;;
9661;SDS011;24982;52.344;12.990;2023-03-31T07:40:27;4.03;;;1.92;;
9661;SDS011;24982;52.344;12.990;2023-03-31T07:43:30;6.72;;;1.85;;
9661;SDS011;24982;52.344;12.990;2023-03-31T07:46:32;3.75;;;1.90;;
9661;SDS011;24982;52.344;12.990;2023-03-31T07:49:35;5.13;;;1.80;;
9661;SDS011;24982;52.344;12.990;2023-03-31T07:52:38;4.38;;;2.08;;
9661;SDS011;24982;52.344;12.990;2023-03-31T07:55:40;4.50;;;1.50;;
9661;SDS011;24982;52.344;12.990;2023-03-31T07:58:42;4.60;;;1.50;;
9661;SDS011;24982;52.344;12.990;2023-03-31T08:01:44;6.93;;;1.77;;
9661;SDS011;24982;52.344;12.990;2023-03-31T08:04:47;7.45;;;1.73;;
9661;SDS011;24982;52.344;12.990;2023-03-31T08:07:50;2.78;;;1.50;;
9661;SDS011;24982;52.344;12.990;2023-03-31T08:10:52;6.10;;;2.03;;
9661;SDS011;24982;52.344;12.990;2023-03-31T08:13:54;6.45;;;1.80;;
9661;SDS011;24982;52.344;12.990;2023-03-31T08:16:55;4.68;;;1.58;;
9661;SDS011;24982;52.344;12.990;2023-03-31T08:20:00;2.22;;;1.33;;
9661;SDS011;24982;52.344;12.990;2023-03-31T08:23:05;4.93;;;1.90;;
9661;SDS011;24982;52.344;12.990;2023-03-31T08:26:11;7.10;;;1.98;;
9661;SDS011;24982;52.344;12.990;2023-03-31T08:29:14;6.85;;;1.85;;
9661;SDS011;24982;52.344;12.990;2023-03-31T08:32:16;3.13;;;1.70;;
9661;SDS011;24982;52.344;12.990;2023-03-31T08:35:19;4.43;;;2.15;;
9661;SDS011;24982;52.344;12.990;2023-03-31T08:38:21;4.75;;;1.65;;
9661;SDS011;24982;52.344;12.990;2023-03-31T08:41:31;4.35;;;1.33;;
9661;SDS011;24982;52.344;12.990;2023-03-31T08:44:40;4.88;;;1.60;;
9661;SDS011;24982;52.344;12.990;2023-03-31T08:47:45;5.53;;;1.65;;
9661;SDS011;24982;52.344;12.990;2023-03-31T08:50:53;4.80;;;1.58;;
9661;SDS011;24982;52.344;12.990;2023-03-31T08:53:58;5.10;;;1.50;;
9661;SDS011;24982;52.344;12.990;2023-03-31T08:57:03;1.83;;;1.30;;
9661;SDS011;24982;52.344;12.990;2023-03-31T09:00:14;4.88;;;1.48;;
9661;SDS011;24982;52.344;12.990;2023-03-31T09:03:19;8.90;;;1.58;;
9661;SDS011;24982;52.344;12.990;2023-03-31T09:06:32;5.78;;;1.40;;
9661;SDS011;24982;52.344;12.990;2023-03-31T09:09:38;2.45;;;1.48;;
9661;SDS011;24982;52.344;12.990;2023-03-31T09:12:49;4.00;;;1.38;;
9661;SDS011;24982;52.344;12.990;2023-03-31T09:15:57;4.63;;;1.60;;
9661;SDS011;24982;52.344;12.990;2023-03-31T09:19:07;4.97;;;1.50;;
9661;SDS011;24982;52.344;12.990;2023-03-31T09:22:16;5.95;;;1.40;;
9661;SDS011;24982;52.344;12.990;2023-03-31T09:25:22;5.93;;;1.60;;
9661;SDS011;24982;52.344;12.990;2023-03-31T09:28:29;4.82;;;1.52;;
9661;SDS011;24982;52.344;12.990;2023-03-31T09:31:35;6.07;;;1.60;;
9661;SDS011;24982;52.344;12.990;2023-03-31T09:34:41;4.57;;;1.60;;
9661;SDS011;24982;52.344;12.990;2023-03-31T09:37:46;3.80;;;1.60;;
9661;SDS011;24982;52.344;12.990;2023-03-31T09:40:49;2.13;;;1.45;;
9661;SDS011;24982;52.344;12.990;2023-03-31T09:43:51;5.22;;;1.83;;
9661;SDS011;24982;52.344;12.990;2023-03-31T09:46:53;4.32;;;1.52;;
9661;SDS011;24982;52.344;12.990;2023-03-31T09:49:55;4.03;;;1.48;;
9661;SDS011;24982;52.344;12.990;2023-03-31T09:52:59;3.28;;;1.45;;
9661;SDS011;24982;52.344;12.990;2023-03-31T09:56:02;4.13;;;1.63;;
9661;SDS011;24982;52.344;12.990;2023-03-31T09:59:11;5.82;;;1.88;;
9661;SDS011;24982;52.344;12.990;2023-03-31T10:02:28;4.18;;;2.00;;
9661;SDS011;24982;52.344;12.990;2023-03-31T10:05:36;6.97;;;2.33;;
9661;SDS011;24982;52.344;12.990;2023-03-31T10:08:50;4.35;;;2.20;;
9661;SDS011;24982;52.344;12.990;2023-03-31T10:11:57;4.47;;;1.92;;
9661;SDS011;24982;52.344;12.990;2023-03-31T10:15:12;4.78;;;1.73;;
9661;SDS011;24982;52.344;12.990;2023-03-31T10:18:31;4.63;;;1.65;;
9661;SDS011;24982;52.344;12.990;2023-03-31T10:21:35;6.57;;;1.75;;
9661;SDS011;24982;52.344;12.990;2023-03-31T10:24:39;4.22;;;2.13;;
9661;SDS011;24982;52.344;12.990;2023-03-31T10:27:42;4.40;;;1.70;;
9661;SDS011;24982;52.344;12.990;2023-03-31T10:30:48;3.92;;;1.67;;
9661;SDS011;24982;52.344;12.990;2023-03-31T10:33:51;3.03;;;1.67;;
9661;SDS011;24982;52.344;12.990;2023-03-31T10:36:55;3.90;;;1.80;;
9661;SDS011;24982;52.344;12.990;2023-03-31T10:39:59;5.20;;;1.60;;
9661;SDS011;24982;52.344;12.990;2023-03-31T10:43:08;6.70;;;2.13;;
9661;SDS011;24982;52.344;12.990;2023-03-31T10:46:15;5.00;;;2.00;;
9661;SDS011;24982;52.344;12.990;2023-03-31T10:49:22;4.00;;;1.90;;
9661;SDS011;24982;52.344;12.990;2023-03-31T10:52:26;5.68;;;2.03;;
9661;SDS011;24982;52.344;12.990;2023-03-31T10:55:32;6.68;;;1.70;;
9661;SDS011;24982;52.344;12.990;2023-03-31T10:58:39;6.35;;;2.25;;
9661;SDS011;24982;52.344;12.990;2023-03-31T11:01:53;4.90;;;1.88;;
9661;SDS011;24982;52.344;12.990;2023-03-31T11:05:14;4.18;;;2.00;;
9661;SDS011;24982;52.344;12.990;2023-03-31T11:08:27;5.13;;;1.90;;
9661;SDS011;24982;52.344;12.990;2023-03-31T11:11:54;7.68;;;4.10;;
9661;SDS011;24982;52.344;12.990;2023-03-31T11:15:04;5.45;;;2.08;;
9661;SDS011;24982;52.344;12.990;2023-03-31T11:18:19;4.50;;;1.75;;
9661;SDS011;24982;52.344;12.990;2023-03-31T11:21:36;2.60;;;1.63;;
9661;SDS011;24982;52.344;12.990;2023-03-31T11:24:53;4.93;;;2.42;;
9661;SDS011;24982;52.344;12.990;2023-03-31T11:28:20;4.13;;;2.20;;
9661;SDS011;24982;52.344;12.990;2023-03-31T11:31:41;5.97;;;2.65;;
9661;SDS011;24982;52.344;12.990;2023-03-31T11:34:57;6.72;;;3.08;;
9661;SDS011;24982;52.344;12.990;2023-03-31T11:38:12;6.72;;;3.22;;
9661;SDS011;24982;52.344;12.990;2023-03-31T11:41:31;5.43;;;2.58;;
9661;SDS011;24982;52.344;12.990;2023-03-31T11:44:37;5.32;;;2.60;;
9661;SDS011;24982;52.344;12.990;2023-03-31T11:47:43;4.55;;;2.58;;
9661;SDS011;24982;52.344;12.990;2023-03-31T11:50:46;5.45;;;2.65;;
9661;SDS011;24982;52.344;12.990;2023-03-31T11:53:49;8.70;;;3.35;;
9661;SDS011;24982;52.344;12.990;2023-03-31T11:56:54;6.82;;;2.97;;
9661;SDS011;24982;52.344;12.990;2023-03-31T11:59:59;5.25;;;2.80;;
9661;SDS011;24982;52.344;12.990;2023-03-31T12:03:12;5.82;;;3.15;;
9661;SDS011;24982;52.344;12.990;2023-03-31T12:06:18;5.05;;;3.22;;
9661;SDS011;24982;52.344;12.990;2023-03-31T12:09:24;9.20;;;3.15;;
9661;SDS011;24982;52.344;12.990;2023-03-31T12:12:31;6.25;;;3.20;;
9661;SDS011;24982;52.344;12.990;2023-03-31T12:15:38;6.72;;;3.75;;
9661;SDS011;24982;52.344;12.990;2023-03-31T12:18:48;5.60;;;3.50;;
9661;SDS011;24982;52.344;12.990;2023-03-31T12:22:03;6.55;;;3.50;;
9661;SDS011;24982;52.344;12.990;2023-03-31T12:25:10;4.80;;;3.83;;
9661;SDS011;24982;52.344;12.990;2023-03-31T12:28:14;6.63;;;4.20;;
9661;SDS011;24982;52.344;12.990;2023-03-31T12:31:19;7.38;;;4.50;;
9661;SDS011;24982;52.344;12.990;2023-03-31T12:34:24;7.53;;;4.22;;
9661;SDS011;24982;52.344;12.990;2023-03-31T12:41:08;8.02;;;3.85;;
9661;SDS011;24982;52.344;12.990;2023-03-31T12:44:22;8.10;;;4.05;;
9661;SDS011;24982;52.344;12.990;2023-03-31T12:47:50;8.07;;;4.00;;
9661;SDS011;24982;52.344;12.990;2023-03-31T12:51:15;11.35;;;4.45;;
9661;SDS011;24982;52.344;12.990;2023-03-31T12:54:34;7.57;;;4.78;;
9661;SDS011;24982;52.344;12.990;2023-03-31T12:57:59;7.68;;;4.82;;
9661;SDS011;24982;52.344;12.990;2023-03-31T13:01:34;5.55;;;3.92;;
9661;SDS011;24982;52.344;12.990;2023-03-31T13:08:48;6.68;;;3.85;;
9661;SDS011;24982;52.344;12.990;2023-03-31T13:11:54;7.88;;;3.65;;
9661;SDS011;24982;52.344;12.990;2023-03-31T13:14:56;8.60;;;3.92;;
9661;SDS011;24982;52.344;12.990;2023-03-31T13:17:59;4.70;;;3.20;;
9661;SDS011;24982;52.344;12.990;2023-03-31T13:21:04;8.88;;;3.67;;
9661;SDS011;24982;52.344;12.990;2023-03-31T13:24:08;10.32;;;3.40;;
9661;SDS011;24982;52.344;12.990;2023-03-31T13:27:23;5.63;;;3.05;;
9661;SDS011;24982;52.344;12.990;2023-03-31T13:30:45;6.60;;;2.90;;
9661;SDS011;24982;52.344;12.990;2023-03-31T13:33:50;5.18;;;3.78;;
9661;SDS011;24982;52.344;12.990;2023-03-31T13:37:00;8.05;;;3.13;;
9661;SDS011;24982;52.344;12.990;2023-03-31T13:43:57;4.53;;;2.13;;
9661;SDS011;24982;52.344;12.990;2023-03-31T13:50:55;2.13;;;1.85;;
9661;SDS011;24982;52.344;12.990;2023-03-31T13:54:16;2.17;;;1.73;;
9661;SDS011;24982;52.344;12.990;2023-03-31T13:57:44;7.10;;;2.35;;
9661;SDS011;24982;52.344;12.990;2023-03-31T14:04:40;5.85;;;2.60;;
9661;SDS011;24982;52.344;12.990;2023-03-31T14:07:59;5.00;;;2.33;;
9661;SDS011;24982;52.344;12.990;2023-03-31T14:11:17;5.20;;;2.65;;
9661;SDS011;24982;52.344;12.990;2023-03-31T14:14:23;6.70;;;2.60;;
9661;SDS011;24982;52.344;12.990;2023-03-31T14:17:26;2.92;;;2.20;;
9661;SDS011;24982;52.344;12.990;2023-03-31T14:20:32;3.75;;;2.20;;
9661;SDS011;24982;52.344;12.990;2023-03-31T14:23:42;3.08;;;1.60;;
9661;SDS011;24982;52.344;12.990;2023-03-31T14:26:53;6.93;;;1.90;;
9661;SDS011;24982;52.344;12.990;2023-03-31T14:30:05;2.67;;;1.50;;
9661;SDS011;24982;52.344;12.990;2023-03-31T14:33:26;2.95;;;1.25;;
9661;SDS011;24982;52.344;12.990;2023-03-31T14:36:37;2.58;;;1.77;;
9661;SDS011;24982;52.344;12.990;2023-03-31T14:39:46;1.45;;;1.35;;
9661;SDS011;24982;52.344;12.990;2023-03-31T14:42:51;1.73;;;1.63;;
9661;SDS011;24982;52.344;12.990;2023-03-31T14:45:57;4.07;;;1.63;;
9661;SDS011;24982;52.344;12.990;2023-03-31T14:49:04;2.60;;;1.70;;
9661;SDS011;24982;52.344;12.990;2023-03-31T14:52:15;2.97;;;2.10;;
9661;SDS011;24982;52.344;12.990;2023-03-31T14:55:21;3.33;;;1.60;;
9661;SDS011;24982;52.344;12.990;2023-03-31T14:58:27;2.75;;;1.60;;
9661;SDS011;24982;52.344;12.990;2023-03-31T15:01:34;1.63;;;1.38;;
9661;SDS011;24982;52.344;12.990;2023-03-31T15:04:39;3.42;;;1.42;;
9661;SDS011;24982;52.344;12.990;2023-03-31T15:07:45;2.90;;;2.08;;
9661;SDS011;24982;52.344;12.990;2023-03-31T15:10:49;2.70;;;1.63;;
9661;SDS011;24982;52.344;12.990;2023-03-31T15:13:54;6.35;;;1.80;;
9661;SDS011;24982;52.344;12.990;2023-03-31T15:16:57;3.17;;;1.60;;
9661;SDS011;24982;52.344;12.990;2023-03-31T15:20:00;4.13;;;1.92;;
9661;SDS011;24982;52.344;12.990;2023-03-31T15:23:16;3.75;;;1.60;;
9661;SDS011;24982;52.344;12.990;2023-03-31T15:26:24;4.68;;;1.30;;
9661;SDS011;24982;52.344;12.990;2023-03-31T15:29:32;2.65;;;1.40;;
9661;SDS011;24982;52.344;12.990;2023-03-31T15:32:37;2.17;;;1.30;;
9661;SDS011;24982;52.344;12.990;2023-03-31T15:35:40;2.45;;;1.67;;
9661;SDS011;24982;52.344;12.990;2023-03-31T15:38:42;1.73;;;1.00;;
9661;SDS011;24982;52.344;12.990;2023-03-31T15:41:45;1.20;;;1.10;;
9661;SDS011;24982;52.344;12.990;2023-03-31T15:44:54;1.15;;;1.10;;
9661;SDS011;24982;52.344;12.990;2023-03-31T15:47:57;1.42;;;1.02;;
9661;SDS011;24982;52.344;12.990;2023-03-31T15:51:04;1.20;;;1.10;;
9661;SDS011;24982;52.344;12.990;2023-03-31T15:54:17;3.30;;;1.70;;
9661;SDS011;24982;52.344;12.990;2023-03-31T15:57:33;2.75;;;1.20;;
9661;SDS011;24982;52.344;12.990;2023-03-31T16:00:41;3.22;;;1.38;;
9661;SDS011;24982;52.344;12.990;2023-03-31T16:03:46;2.40;;;1.30;;
9661;SDS011;24982;52.344;12.990;2023-03-31T16:06:48;2.90;;;1.27;;
9661;SDS011;24982;52.344;12.990;2023-03-31T16:09:54;2.33;;;1.60;;
9661;SDS011;24982;52.344;12.990;2023-03-31T16:13:02;4.25;;;1.65;;
9661;SDS011;24982;52.344;12.990;2023-03-31T16:16:08;3.17;;;1.30;;
9661;SDS011;24982;52.344;12.990;2023-03-31T16:19:12;3.47;;;1.38;;
9661;SDS011;24982;52.344;12.990;2023-03-31T16:22:16;1.38;;;1.38;;
9661;SDS011;24982;52.344;12.990;2023-03-31T16:25:21;3.25;;;1.30;;
9661;SDS011;24982;52.344;12.990;2023-03-31T16:28:25;1.15;;;1.05;;
9661;SDS011;24982;52.344;12.990;2023-03-31T16:31:32;0.75;;;0.75;;
9661;SDS011;24982;52.344;12.990;2023-03-31T16:34:50;1.40;;;1.10;;
9661;SDS011;24982;52.344;12.990;2023-03-31T16:37:56;1.40;;;1.30;;
9661;SDS011;24982;52.344;12.990;2023-03-31T16:41:00;1.23;;;1.20;;
9661;SDS011;24982;52.344;12.990;2023-03-31T16:44:02;1.40;;;1.30;;
9661;SDS011;24982;52.344;12.990;2023-03-31T16:47:06;1.35;;;1.20;;
9661;SDS011;24982;52.344;12.990;2023-03-31T16:50:09;1.80;;;1.17;;
9661;SDS011;24982;52.344;12.990;2023-03-31T16:53:11;2.30;;;1.33;;
9661;SDS011;24982;52.344;12.990;2023-03-31T16:56:13;1.52;;;1.23;;
9661;SDS011;24982;52.344;12.990;2023-03-31T16:59:15;1.88;;;1.23;;
9661;SDS011;24982;52.344;12.990;2023-03-31T17:02:19;1.60;;;1.33;;
9661;SDS011;24982;52.344;12.990;2023-03-31T17:05:21;2.10;;;1.40;;
9661;SDS011;24982;52.344;12.990;2023-03-31T17:08:25;1.92;;;1.77;;
9661;SDS011;24982;52.344;12.990;2023-03-31T17:11:27;2.92;;;2.60;;
9661;SDS011;24982;52.344;12.990;2023-03-31T17:14:29;1.55;;;1.42;;
9661;SDS011;24982;52.344;12.990;2023-03-31T17:17:33;1.80;;;1.70;;
9661;SDS011;24982;52.344;12.990;2023-03-31T17:20:35;2.17;;;1.75;;
9661;SDS011;24982;52.344;12.990;2023-03-31T17:23:37;1.80;;;1.70;;
9661;SDS011;24982;52.344;12.990;2023-03-31T17:26:40;2.50;;;2.30;;
9661;SDS011;24982;52.344;12.990;2023-03-31T17:29:42;2.50;;;2.40;;
9661;SDS011;24982;52.344;12.990;2023-03-31T17:32:45;5.38;;;2.92;;
9661;SDS011;24982;52.344;12.990;2023-03-31T17:35:47;2.50;;;2.40;;
9661;SDS011;24982;52.344;12.990;2023-03-31T17:38:49;2.55;;;2.38;;
9661;SDS011;24982;52.344;12.990;2023-03-31T17:41:51;2.33;;;2.20;;
9661;SDS011;24982;52.344;12.990;2023-03-31T17:44:53;1.70;;;1.70;;
9661;SDS011;24982;52.344;12.990;2023-03-31T17:47:58;3.38;;;2.00;;
9661;SDS011;24982;52.344;12.990;2023-03-31T17:51:02;1.95;;;1.70;;
9661;SDS011;24982;52.344;12.990;2023-03-31T17:54:06;2.00;;;1.58;;
9661;SDS011;24982;52.344;12.990;2023-03-31T17:57:08;1.67;;;1.58;;
9661;SDS011;24982;52.344;12.990;2023-03-31T18:00:11;2.30;;;2.20;;
9661;SDS011;24982;52.344;12.990;2023-03-31T18:03:16;3.50;;;2.40;;
9661;SDS011;24982;52.344;12.990;2023-03-31T18:06:19;4.22;;;2.97;;
9661;SDS011;24982;52.344;12.990;2023-03-31T18:09:21;2.85;;;2.50;;
9661;SDS011;24982;52.344;12.990;2023-03-31T18:12:24;3.58;;;3.22;;
9661;SDS011;24982;52.344;12.990;2023-03-31T18:15:27;4.72;;;3.45;;
9661;SDS011;24982;52.344;12.990;2023-03-31T18:18:31;4.38;;;3.42;;
9661;SDS011;24982;52.344;12.990;2023-03-31T18:21:33;12.23;;;11.02;;
9661;SDS011;24982;52.344;12.990;2023-03-31T18:24:36;19.73;;;17.83;;
9661;SDS011;24982;52.344;12.990;2023-03-31T18:27:39;54.97;;;49.67;;
9661;SDS011;24982;52.344;12.990;2023-03-31T18:30:42;43.67;;;39.53;;
9661;SDS011;24982;52.344;12.990;2023-03-31T18:33:47;47.78;;;43.47;;
9661;SDS011;24982;52.344;12.990;2023-03-31T18:36:51;40.25;;;36.55;;
9661;SDS011;24982;52.344;12.990;2023-03-31T18:39:53;29.67;;;27.08;;
9661;SDS011;24982;52.344;12.990;2023-03-31T18:42:55;35.78;;;32.60;;
9661;SDS011;24982;52.344;12.990;2023-03-31T18:45:57;27.33;;;24.83;;
9661;SDS011;24982;52.344;12.990;2023-03-31T18:49:01;24.23;;;22.05;;
9661;SDS011;24982;52.344;12.990;2023-03-31T18:52:03;22.27;;;20.13;;
9661;SDS011;24982;52.344;12.990;2023-03-31T18:55:06;14.80;;;13.40;;
9661;SDS011;24982;52.344;12.990;2023-03-31T18:58:09;12.00;;;10.75;;
9661;SDS011;24982;52.344;12.990;2023-03-31T19:01:11;13.25;;;12.05;;
9661;SDS011;24982;52.344;12.990;2023-03-31T19:04:14;13.80;;;12.50;;
9661;SDS011;24982;52.344;12.990;2023-03-31T19:07:16;9.73;;;8.73;;
9661;SDS011;24982;52.344;12.990;2023-03-31T19:10:18;5.80;;;5.30;;